.
WxDataArchive / Data Records for 2014-08-13
2014-08-12 August 2014 2014-08-14

Data Records for Wednesday, 13 August 2014

Time	Temp	Chill	HIndex	Humid	Dewpt	 Wind 	HiWind	WindDir	Rain 	Barom
-----	----	-----	------	-----	-----	------	------	-------	-----	-----
00:00	60.1	60.1	60.1	83	54.9	3	5	270	0.00	29.905 
00:05	60.1	60.1	60.1	83	54.9	1	5	292	0.00	29.905 
00:10	60.1	60.1	60.1	82	54.6	2	4	270	0.00	29.905 
00:15	60.1	60.1	60.1	82	54.6	1	3	292	0.00	29.905 
00:20	59.9	59.9	59.9	82	54.4	1	3	292	0.00	29.905 
00:25	59.9	59.9	59.9	83	54.7	1	4	292	0.00	29.905 
00:30	59.9	59.9	59.9	82	54.4	1	5	292	0.00	29.911 
00:35	59.9	59.9	59.9	82	54.4	2	5	292	0.00	29.911 
00:40	60.1	60.1	60.1	82	54.6	2	4	338	0.00	29.911 
00:45	60.1	60.1	60.1	81	54.2	1	7	315	0.00	29.912 
00:50	60.1	60.1	60.1	81	54.2	2	6	315	0.00	29.912 
00:55	59.9	59.9	59.9	81	54.1	2	7	292	0.00	29.912 
01:00	59.8	59.8	59.8	81	54.0	2	6	292	0.00	29.909 
01:05	59.6	59.6	59.6	82	54.1	2	5	292	0.00	29.909 
01:10	59.5	59.5	59.5	82	54.0	1	2	292	0.00	29.909 
01:15	59.3	59.3	59.3	83	54.1	1	4	292	0.00	29.913 
01:20	59.2	59.2	59.2	83	54.0	1	3	292	0.00	29.913 
01:25	59.2	59.2	59.2	84	54.4	1	3	292	0.00	29.913 
01:30	59.0	59.0	59.0	84	54.2	1	3	292	0.00	29.915 
01:35	58.9	58.9	58.9	84	54.1	0	3	292	0.00	29.915 
01:40	58.7	58.7	58.7	84	53.9	0	3	292	0.00	29.915 
01:45	58.7	58.7	58.7	85	54.2	0	3	292	0.00	29.911 
01:50	58.6	58.6	58.6	85	54.1	0	2	292	0.00	29.911 
01:55	58.4	58.4	58.4	85	53.9	0	2	292	0.00	29.911 
02:00	58.3	58.3	58.3	86	54.1	0	2	292	0.00	29.912 
02:05	58.1	58.1	58.1	86	53.9	0	1	292	0.00	29.912 
02:10	58.1	58.1	58.1	86	53.9	0	1	292	0.00	29.912 
02:15	58.0	58.0	58.0	87	54.1	0	1	292	0.00	29.910 
02:20	57.8	57.8	57.8	87	54.0	0	3	292	0.00	29.910 
02:25	57.8	57.8	57.8	87	54.0	0	1	292	0.00	29.910 
02:30	57.6	57.6	57.6	88	54.1	0	2	292	0.00	29.909 
02:35	57.6	57.6	57.6	88	54.1	0	1	292	0.00	29.909 
02:40	57.5	57.5	57.5	88	54.0	0	2	292	0.00	29.909 
02:45	57.5	57.5	57.5	88	54.0	1	3	292	0.00	29.911 
02:50	57.5	57.5	57.5	88	54.0	0	1	292	0.00	29.911 
02:55	57.3	57.3	57.3	88	53.8	0	2	292	0.00	29.911 
03:00	57.2	57.2	57.2	89	54.0	0	1	292	0.00	29.919 
03:05	57.2	57.2	57.2	89	54.0	0	2	292	0.00	29.919 
03:10	57.2	57.2	57.2	89	54.0	0	1	292	0.00	29.919 
03:15	57.0	57.0	57.0	89	53.8	0	1	292	0.00	29.921 
03:20	57.0	57.0	57.0	89	53.8	0	1	292	0.00	29.921 
03:25	56.9	56.9	56.9	89	53.7	0	1	292	0.00	29.921 
03:30	56.9	56.9	56.9	89	53.7	0	1	292	0.00	29.921 
03:35	56.7	56.7	56.7	90	53.8	0	1	292	0.00	29.921 
03:40	56.7	56.7	56.7	90	53.8	0	1	292	0.00	29.921 
03:45	56.6	56.6	56.6	90	53.7	0	0	---	0.00	29.923 
03:50	56.6	56.6	56.6	90	53.7	0	1	292	0.00	29.923 
03:55	56.5	56.5	56.5	90	53.6	0	1	292	0.00	29.923 
04:00	56.5	56.5	56.5	90	53.6	0	0	---	0.00	29.925 
04:05	56.5	56.5	56.5	91	53.9	0	1	292	0.00	29.925 
04:10	56.3	56.3	56.3	91	53.7	0	0	---	0.00	29.925 
04:15	56.3	56.3	56.3	91	53.7	0	1	292	0.00	29.931 
04:20	56.3	56.3	56.3	91	53.7	0	1	292	0.00	29.931 
04:25	56.3	56.3	56.3	91	53.7	0	1	292	0.00	29.931 
04:30	56.3	56.3	56.3	91	53.7	0	1	292	0.00	29.929 
04:35	56.2	56.2	56.2	91	53.6	0	1	292	0.00	29.929 
04:40	56.2	56.2	56.2	91	53.6	0	1	292	0.00	29.929 
04:45	56.2	56.2	56.2	92	53.9	0	1	292	0.00	29.925 
04:50	56.0	56.0	56.0	92	53.7	0	1	292	0.00	29.925 
04:55	56.0	56.0	56.0	92	53.7	0	1	292	0.00	29.925 
05:00	56.0	56.0	56.0	92	53.7	0	0	---	0.00	29.930 
05:05	55.9	55.9	55.9	92	53.6	0	1	292	0.00	29.930 
05:10	55.9	55.9	55.9	92	53.6	0	1	292	0.00	29.930 
05:15	55.9	55.9	55.9	92	53.6	0	1	292	0.00	29.931 
05:20	55.9	55.9	55.9	92	53.6	0	1	292	0.00	29.931 
05:25	55.9	55.9	55.9	92	53.6	0	1	292	0.00	29.931 
05:30	55.9	55.9	55.9	92	53.6	0	1	292	0.00	29.934 
05:35	55.9	55.9	55.9	92	53.6	0	1	292	0.00	29.934 
05:40	55.9	55.9	55.9	92	53.6	0	1	292	0.00	29.934 
05:45	55.9	55.9	55.9	92	53.6	0	1	292	0.00	29.933 
05:50	55.9	55.9	55.9	92	53.6	0	1	292	0.00	29.933 
05:55	56.0	56.0	56.0	92	53.7	0	1	292	0.00	29.933 
06:00	56.0	56.0	56.0	92	53.7	0	0	---	0.00	29.931 
06:05	56.0	56.0	56.0	93	54.0	0	1	292	0.00	29.931 
06:10	56.0	56.0	56.0	93	54.0	0	2	292	0.00	29.931 
06:15	56.0	56.0	56.0	93	54.0	0	1	292	0.00	29.938 
06:20	56.0	56.0	56.0	92	53.7	0	1	292	0.00	29.938 
06:25	56.0	56.0	56.0	93	54.0	0	1	292	0.00	29.938 
06:30	56.0	56.0	56.0	93	54.0	0	1	292	0.00	29.941 
06:35	56.0	56.0	56.0	93	54.0	0	0	---	0.00	29.941 
06:40	55.9	55.9	55.9	93	53.9	0	0	---	0.00	29.941 
06:45	55.9	55.9	55.9	93	53.9	0	0	---	0.00	29.947 
06:50	55.9	55.9	55.9	93	53.9	0	1	292	0.00	29.947 
06:55	55.9	55.9	55.9	93	53.9	0	0	---	0.00	29.947 
07:00	55.9	55.9	55.9	93	53.9	0	1	292	0.00	29.952 
07:05	56.0	56.0	56.0	93	54.0	0	0	---	0.00	29.952 
07:10	56.0	56.0	56.0	93	54.0	0	0	---	0.00	29.952 
07:15	56.0	56.0	56.0	93	54.0	0	0	---	0.00	29.958 
07:20	56.0	56.0	56.0	93	54.0	0	0	---	0.00	29.958 
07:25	56.2	56.2	56.2	93	54.2	0	1	292	0.00	29.958 
07:30	56.3	56.3	56.3	94	54.6	0	1	292	0.00	29.959 
07:35	56.5	56.5	56.5	94	54.8	0	1	292	0.00	29.959 
07:40	56.6	56.6	56.6	94	54.9	0	1	292	0.00	29.959 
07:45	56.9	56.9	56.9	94	55.2	0	1	292	0.00	29.961 
07:50	57.2	57.2	57.2	94	55.5	0	2	292	0.00	29.961 
07:55	57.5	57.5	57.5	94	55.8	0	2	292	0.00	29.961 
08:00	57.8	57.8	57.8	93	55.8	0	2	292	0.00	29.965 
08:05	58.1	58.1	58.1	93	56.1	0	2	292	0.00	29.965 
08:10	58.6	58.6	58.6	93	56.6	0	1	292	0.00	29.965 
08:15	58.9	58.9	58.9	92	56.6	1	2	292	0.00	29.969 
08:20	59.0	59.0	59.0	92	56.7	1	3	292	0.00	29.969 
08:25	59.5	59.5	59.5	92	57.2	0	2	292	0.00	29.969 
08:30	59.8	59.8	59.8	91	57.2	1	3	292	0.00	29.971 
08:35	60.2	60.2	60.2	90	57.3	0	2	292	0.00	29.971 
08:40	60.7	60.7	60.7	90	57.7	0	2	292	0.00	29.971 
08:45	61.0	61.0	61.0	88	57.4	1	3	292	0.00	29.970 
08:50	61.3	61.3	61.3	87	57.4	1	2	292	0.00	29.970 
08:55	61.6	61.6	61.6	86	57.4	1	3	292	0.00	29.970 
09:00	62.1	62.1	62.1	86	57.9	1	3	292	0.00	29.972 
09:05	62.4	62.4	62.4	84	57.5	1	3	292	0.00	29.972 
09:10	62.6	62.6	62.6	83	57.4	1	3	292	0.00	29.972 
09:15	62.9	62.9	62.9	82	57.3	1	3	292	0.00	29.973 
09:20	63.2	63.2	63.2	81	57.3	1	3	292	0.00	29.973 
09:25	63.7	63.7	63.7	81	57.8	1	2	292	0.00	29.973 
09:30	64.0	64.0	64.0	80	57.7	1	4	292	0.00	29.980 
09:35	64.5	64.5	64.5	80	58.2	1	4	292	0.00	29.980 
09:40	64.8	64.8	64.8	79	58.1	2	4	292	0.00	29.980 
09:45	65.2	65.2	65.2	79	58.5	1	3	292	0.00	29.981 
09:50	65.3	65.3	65.3	77	57.9	2	5	292	0.00	29.981 
09:55	65.5	65.5	65.5	77	58.1	2	5	315	0.00	29.981 
10:00	65.6	65.6	65.6	74	57.1	2	5	270	0.00	29.980 
10:05	66.1	66.1	66.1	74	57.6	1	3	270	0.00	29.980 
10:10	66.3	66.3	66.3	71	56.6	1	4	270	0.00	29.980 
10:15	66.6	66.6	66.6	72	57.3	2	4	315	0.00	29.981 
10:20	66.9	66.9	66.9	73	58.0	1	3	315	0.00	29.981 
10:25	67.3	67.3	67.3	72	58.0	2	4	315	0.00	29.981 
10:30	67.6	67.6	67.6	73	58.6	1	4	292	0.00	29.982 
10:35	67.8	67.8	67.8	72	58.4	2	4	270	0.00	29.982 
10:40	67.9	67.9	67.9	70	57.7	3	4	270	0.00	29.982 
10:45	68.3	68.3	68.3	70	58.1	2	4	270	0.00	29.987 
10:50	68.6	68.6	68.6	68	57.6	2	4	292	0.00	29.987 
10:55	68.9	68.9	68.9	65	56.6	3	6	315	0.00	29.987 
11:00	68.9	68.9	68.9	66	57.1	2	6	292	0.00	29.993 
11:05	69.3	69.3	69.3	64	56.6	2	5	338	0.00	29.993 
11:10	69.4	69.4	69.4	62	55.8	3	10	270	0.00	29.993 
11:15	69.6	69.6	69.6	62	56.0	3	5	338	0.00	29.994 
11:20	69.9	69.9	69.9	60	55.4	2	4	292	0.00	29.994 
11:25	70.1	70.1	70.1	59	55.1	2	6	315	0.00	29.994 
11:30	70.6	70.6	70.6	58	55.1	2	5	315	0.00	29.994 
11:35	71.1	71.1	71.1	58	55.6	2	4	270	0.00	29.994 
11:40	71.5	71.5	71.5	55	54.5	2	5	270	0.00	29.994 
11:45	71.5	71.5	71.5	53	53.5	2	6	338	0.00	29.992 
11:50	71.5	71.5	71.5	51	52.4	3	5	338	0.00	29.992 
11:55	71.8	71.8	71.8	49	51.6	3	7	270	0.00	29.992 
12:00	72.0	72.0	72.0	49	51.8	2	5	315	0.00	29.991 
12:05	72.1	72.1	72.1	50	52.4	2	5	338	0.00	29.991 
12:10	72.7	72.7	72.7	50	53.0	1	4	315	0.00	29.991 
12:15	72.7	72.7	72.7	46	50.7	2	6	315	0.00	29.992 
12:20	72.8	72.8	72.8	49	52.5	1	3	315	0.00	29.992 
12:25	73.3	73.3	73.3	48	52.4	2	5	315	0.00	29.992 
12:30	73.5	73.5	73.5	49	53.2	1	4	315	0.00	29.985 
12:35	73.9	73.9	73.9	50	54.1	1	3	338	0.00	29.985 
12:40	74.4	74.4	74.4	49	54.0	1	3	315	0.00	29.985 
12:45	74.7	74.7	74.7	44	51.3	1	4	270	0.00	29.979 
12:50	74.6	74.6	74.6	43	50.6	1	5	315	0.00	29.979 
12:55	74.7	74.7	74.7	43	50.7	2	4	292	0.00	29.979 
13:00	74.7	74.7	74.7	43	50.7	1	4	292	0.00	29.979 
13:05	75.1	75.1	77.7	46	52.9	1	3	292	0.00	29.979 
13:10	75.3	75.3	77.6	41	50.0	2	5	270	0.00	29.979 
13:15	74.9	74.9	74.9	41	49.6	2	5	292	0.00	29.979 
13:20	74.7	74.7	74.7	44	51.3	2	4	292	0.00	29.979 
13:25	74.7	74.7	74.7	43	50.7	2	5	315	0.00	29.979 
13:30	74.9	74.9	74.9	45	52.1	2	6	315	0.00	29.978 
13:35	75.3	75.3	77.7	45	52.5	2	7	270	0.00	29.978 
13:40	75.1	75.1	77.6	42	50.4	2	5	338	0.00	29.978 
13:45	75.3	75.3	77.7	43	51.2	2	5	270	0.00	29.977 
13:50	75.4	75.4	77.7	43	51.3	1	4	315	0.00	29.977 
13:55	75.6	75.6	77.8	43	51.5	1	4	315	0.00	29.977 
14:00	76.0	76.0	78.0	45	53.1	1	3	292	0.00	29.974 
14:05	76.0	76.0	77.9	43	51.9	1	3	315	0.00	29.974 
14:10	76.0	76.0	77.9	43	51.9	3	7	292	0.00	29.974 
14:15	75.8	75.8	77.9	45	52.9	1	4	338	0.00	29.970 
14:20	76.0	76.0	78.0	46	53.7	2	4	270	0.00	29.970 
14:25	76.1	76.1	78.0	46	53.8	1	3	270	0.00	29.970 
14:30	76.3	76.3	78.1	45	53.4	3	5	292	0.00	29.969 
14:35	76.3	76.3	78.1	46	54.0	3	6	270	0.00	29.969 
14:40	76.1	76.1	78.0	46	53.8	1	4	292	0.00	29.969 
14:45	76.5	76.5	78.2	46	54.2	2	6	292	0.00	29.967 
14:50	76.8	76.8	78.4	46	54.4	1	5	292	0.00	29.967 
14:55	77.0	77.0	78.5	46	54.6	2	6	315	0.00	29.967 
15:00	76.8	76.8	78.3	45	53.8	2	6	315	0.00	29.963 
15:05	76.5	76.5	78.3	47	54.7	2	6	315	0.00	29.963 
15:10	76.7	76.7	78.3	46	54.3	2	7	315	0.00	29.963 
15:15	76.7	76.7	78.3	44	53.1	3	5	270	0.00	29.962 
15:20	76.5	76.5	78.3	47	54.7	1	4	315	0.00	29.962 
15:25	76.3	76.3	78.1	46	54.0	2	5	292	0.00	29.962 
15:30	76.5	76.5	78.2	46	54.2	2	4	315	0.00	29.964 
15:35	76.7	76.7	78.3	46	54.3	2	5	292	0.00	29.964 
15:40	77.0	77.0	78.5	46	54.6	2	5	270	0.00	29.964 
15:45	76.5	76.5	78.3	47	54.7	2	6	315	0.00	29.963 
15:50	76.1	76.1	78.0	46	53.8	3	6	292	0.00	29.963 
15:55	76.0	76.0	78.0	47	54.3	2	4	292	0.00	29.963 
16:00	76.5	76.5	78.3	50	56.5	2	5	270	0.00	29.964 
16:05	76.5	76.5	78.2	46	54.2	2	4	270	0.00	29.964 
16:10	76.0	76.0	78.0	46	53.7	2	7	338	0.00	29.964 
16:15	75.8	75.8	77.9	47	54.1	2	5	292	0.00	29.963 
16:20	75.4	75.4	77.8	47	53.7	3	5	292	0.00	29.963 
16:25	75.1	75.1	77.7	48	54.1	2	7	270	0.00	29.963 
16:30	74.7	74.7	74.7	50	54.8	2	5	338	0.00	29.964 
16:35	75.1	75.1	77.7	50	55.2	1	3	315	0.00	29.964 
16:40	75.4	75.4	77.8	49	54.9	2	5	270	0.00	29.964 
16:45	75.1	75.1	77.7	50	55.2	2	6	315	0.00	29.962 
16:50	74.9	74.9	74.9	51	55.5	2	7	270	0.00	29.962 
16:55	74.9	74.9	74.9	51	55.5	2	6	270	0.00	29.962 
17:00	74.7	74.7	74.7	50	54.8	3	5	315	0.00	29.961 
17:05	74.7	74.7	74.7	51	55.4	3	5	270	0.00	29.961 
17:10	75.3	75.3	77.7	51	55.9	3	5	270	0.00	29.961 
17:15	75.4	75.4	77.8	51	56.0	3	5	270	0.00	29.961 
17:20	76.0	76.0	78.1	50	56.0	2	5	270	0.00	29.961 
17:25	76.1	76.1	78.1	50	56.1	1	4	270	0.00	29.961 
17:30	75.8	75.8	78.0	50	55.8	2	4	270	0.00	29.959 
17:35	76.0	76.0	78.1	51	56.5	1	4	270	0.00	29.959 
17:40	76.3	76.3	78.2	50	56.3	2	6	270	0.00	29.959 
17:45	76.0	76.0	78.1	51	56.5	2	4	270	0.00	29.961 
17:50	76.3	76.3	78.2	51	56.8	2	4	270	0.00	29.961 
17:55	76.1	76.1	78.1	50	56.1	2	6	270	0.00	29.961 
18:00	76.1	76.1	78.1	50	56.1	2	4	270	0.00	29.956 
18:05	76.7	76.7	78.4	51	57.2	2	4	270	0.00	29.956 
18:10	76.8	76.8	78.5	50	56.7	2	5	270	0.00	29.956 
18:15	76.5	76.5	78.3	51	57.0	1	5	270	0.00	29.952 
18:20	76.5	76.5	78.4	52	57.5	0	3	270	0.00	29.952 
18:25	76.3	76.3	78.2	52	57.4	1	4	270	0.00	29.952 
18:30	76.0	76.0	78.1	51	56.5	1	4	270	0.00	29.949 
18:35	76.0	76.0	78.1	52	57.1	2	5	270	0.00	29.949 
18:40	76.0	76.0	78.1	52	57.1	2	4	292	0.00	29.949 
18:45	76.0	76.0	78.1	52	57.1	2	5	315	0.00	29.945 
18:50	76.1	76.1	78.1	53	57.7	2	5	270	0.00	29.945 
18:55	76.3	76.3	78.2	53	57.9	1	5	270	0.00	29.945 
19:00	76.3	76.3	78.2	53	57.9	2	6	315	0.00	29.946 
19:05	76.0	76.0	78.1	52	57.1	2	6	270	0.00	29.946 
19:10	76.0	76.0	78.1	53	57.6	1	3	270	0.00	29.946 
19:15	75.6	75.6	77.9	54	57.8	2	5	315	0.00	29.945 
19:20	75.3	75.3	77.7	54	57.5	1	3	315	0.00	29.945 
19:25	75.1	75.1	77.6	55	57.8	1	4	315	0.00	29.945 
19:30	75.3	75.3	77.7	55	58.0	1	3	315	0.00	29.946 
19:35	75.3	75.3	77.7	55	58.0	1	4	315	0.00	29.946 
19:40	75.3	75.3	77.7	55	58.0	1	4	270	0.00	29.946 
19:45	75.3	75.3	77.7	55	58.0	1	4	270	0.00	29.946 
19:50	75.1	75.1	77.6	56	58.3	1	2	270	0.00	29.946 
19:55	75.1	75.1	77.5	57	58.8	0	2	270	0.00	29.946 
20:00	74.9	74.9	74.9	57	58.6	0	2	270	0.00	29.946 
20:05	74.6	74.6	74.6	58	58.8	0	2	270	0.00	29.946 
20:10	74.4	74.4	74.4	58	58.6	1	3	270	0.00	29.946 
20:15	74.0	74.0	74.0	58	58.3	1	2	270	0.00	29.944 
20:20	73.9	73.9	73.9	59	58.7	0	2	270	0.00	29.944 
20:25	73.7	73.7	73.7	59	58.5	1	3	270	0.00	29.944 
20:30	73.5	73.5	73.5	60	58.7	0	2	270	0.00	29.945 
20:35	73.2	73.2	73.2	60	58.5	0	1	270	0.00	29.945 
20:40	73.0	73.0	73.0	61	58.7	0	1	270	0.00	29.945 
20:45	72.7	72.7	72.7	62	58.9	0	0	---	0.00	29.946 
20:50	72.5	72.5	72.5	62	58.7	0	0	---	0.00	29.946 
20:55	72.1	72.1	72.1	63	58.8	0	0	---	0.00	29.946 
21:00	71.8	71.8	71.8	64	59.0	0	1	270	0.00	29.946 
21:05	71.6	71.6	71.6	64	58.8	0	1	270	0.00	29.946 
21:10	71.5	71.5	71.5	65	59.1	0	0	---	0.00	29.946 
21:15	71.3	71.3	71.3	65	58.9	0	0	---	0.00	29.947 
21:20	71.1	71.1	71.1	66	59.2	0	0	---	0.00	29.947 
21:25	70.8	70.8	70.8	67	59.3	0	0	---	0.00	29.947 
21:30	70.6	70.6	70.6	67	59.1	0	0	---	0.00	29.955 
21:35	70.4	70.4	70.4	68	59.3	0	0	---	0.00	29.955 
21:40	70.3	70.3	70.3	69	59.6	0	0	---	0.00	29.955 
21:45	69.9	69.9	69.9	69	59.3	0	0	---	0.00	29.958 
21:50	69.6	69.6	69.6	70	59.4	0	0	---	0.00	29.958 
21:55	69.4	69.4	69.4	71	59.6	0	1	270	0.00	29.958 
22:00	69.3	69.3	69.3	72	59.9	0	1	270	0.00	29.961 
22:05	69.3	69.3	69.3	72	59.9	0	1	270	0.00	29.961 
22:10	69.3	69.3	69.3	72	59.9	0	1	270	0.00	29.961 
22:15	69.1	69.1	69.1	72	59.7	0	1	270	0.00	29.960 
22:20	69.1	69.1	69.1	73	60.1	0	1	270	0.00	29.960 
22:25	68.9	68.9	68.9	73	59.9	0	1	270	0.00	29.960 
22:30	68.9	68.9	68.9	73	59.9	0	1	270	0.00	29.965 
22:35	68.8	68.8	68.8	73	59.8	0	1	270	0.00	29.965 
22:40	68.6	68.6	68.6	73	59.6	0	0	---	0.00	29.965 
22:45	68.4	68.4	68.4	73	59.4	0	1	270	0.00	29.970 
22:50	68.3	68.3	68.3	73	59.3	0	1	270	0.00	29.970 
22:55	68.3	68.3	68.3	73	59.3	0	1	270	0.00	29.970 
23:00	68.1	68.1	68.1	73	59.1	0	1	270	0.00	29.970 
23:05	67.9	67.9	67.9	73	58.9	0	1	270	0.00	29.970 
23:10	67.9	67.9	67.9	73	58.9	0	1	270	0.00	29.970 
23:15	67.8	67.8	67.8	74	59.2	0	1	270	0.00	29.967 
23:20	67.6	67.6	67.6	74	59.0	0	0	---	0.00	29.967 
23:25	67.4	67.4	67.4	74	58.8	0	1	270	0.00	29.967 
23:30	67.3	67.3	67.3	74	58.7	0	1	270	0.00	29.972 
23:35	67.1	67.1	67.1	74	58.5	0	1	270	0.00	29.972 
23:40	66.9	66.9	66.9	74	58.3	0	0	---	0.00	29.972 
23:45	66.8	66.8	66.8	75	58.6	0	0	---	0.00	29.972 
23:50	66.6	66.6	66.6	75	58.4	0	0	---	0.00	29.972 
23:55	66.4	66.4	66.4	75	58.2	0	0	---	0.00	29.972 

CoCoRaHS
IN-AL-39
A2 Web Hosting
Creative Commons License
GoDaddy
search engine by freefind advanced

loaded 2018-11-15 04:03:03 • last modified 2010-11-18 10:43:29
Privacy PolicyDisclaimer
• wx.awcolley.com is powered by PmWiki v.2002016 •
• all content (unless otherwise noted) © 2018 A W Colley